sensor_id;sensor_type;location;lat;lon;timestamp;temperature;humidity
7212;DHT22;3647;48.792;9.802;2022-12-29T05:16:44;6.90;99.90
7212;DHT22;3647;48.792;9.802;2022-12-29T05:19:11;6.90;99.90
7212;DHT22;3647;48.792;9.802;2022-12-29T05:21:38;6.90;99.90
7212;DHT22;3647;48.792;9.802;2022-12-29T05:24:05;6.80;99.90
7212;DHT22;3647;48.792;9.802;2022-12-29T05:26:32;6.70;99.90
7212;DHT22;3647;48.792;9.802;2022-12-29T05:28:59;6.60;99.90
7212;DHT22;3647;48.792;9.802;2022-12-29T05:31:26;6.60;99.90
7212;DHT22;3647;48.792;9.802;2022-12-29T05:33:54;6.50;99.90
7212;DHT22;3647;48.792;9.802;2022-12-29T05:36:21;6.60;99.90
7212;DHT22;3647;48.792;9.802;2022-12-29T05:38:48;6.60;99.90
7212;DHT22;3647;48.792;9.802;2022-12-29T05:41:14;7.30;99.90
7212;DHT22;3647;48.792;9.802;2022-12-29T05:43:41;6.40;99.90
7212;DHT22;3647;48.792;9.802;2022-12-29T05:46:08;6.50;99.90
7212;DHT22;3647;48.792;9.802;2022-12-29T05:48:35;6.40;99.90
7212;DHT22;3647;48.792;9.802;2022-12-29T05:51:03;6.30;99.90
7212;DHT22;3647;48.792;9.802;2022-12-29T05:53:30;6.20;99.90
7212;DHT22;3647;48.792;9.802;2022-12-29T05:55:56;4.80;99.90
7212;DHT22;3647;48.792;9.802;2022-12-29T05:58:23;6.00;99.90
7212;DHT22;3647;48.792;9.802;2022-12-29T06:00:50;6.50;99.90
7212;DHT22;3647;48.792;9.802;2022-12-29T06:03:17;6.00;99.90
7212;DHT22;3647;48.792;9.802;2022-12-29T06:05:44;5.90;99.90
7212;DHT22;3647;48.792;9.802;2022-12-29T06:08:13;5.80;99.90
7212;DHT22;3647;48.792;9.802;2022-12-29T06:10:40;5.90;99.90
7212;DHT22;3647;48.792;9.802;2022-12-29T06:13:06;5.80;99.90
7212;DHT22;3647;48.792;9.802;2022-12-29T06:15:34;5.80;99.90
7212;DHT22;3647;48.792;9.802;2022-12-29T06:18:01;5.60;99.90
7212;DHT22;3647;48.792;9.802;2022-12-29T06:20:28;5.60;99.90
7212;DHT22;3647;48.792;9.802;2022-12-29T06:22:55;5.50;99.90
7212;DHT22;3647;48.792;9.802;2022-12-29T06:25:23;5.50;99.90
7212;DHT22;3647;48.792;9.802;2022-12-29T06:27:49;5.50;99.90
7212;DHT22;3647;48.792;9.802;2022-12-29T06:30:16;5.50;99.90
7212;DHT22;3647;48.792;9.802;2022-12-29T06:32:43;5.40;99.90
7212;DHT22;3647;48.792;9.802;2022-12-29T06:35:11;5.40;99.90
7212;DHT22;3647;48.792;9.802;2022-12-29T06:37:37;5.40;99.90
7212;DHT22;3647;48.792;9.802;2022-12-29T06:40:05;5.40;99.90
7212;DHT22;3647;48.792;9.802;2022-12-29T06:42:33;5.40;99.90
7212;DHT22;3647;48.792;9.802;2022-12-29T06:45:00;5.40;99.90
7212;DHT22;3647;48.792;9.802;2022-12-29T06:47:27;5.30;99.90
7212;DHT22;3647;48.792;9.802;2022-12-29T06:49:54;5.30;99.90
7212;DHT22;3647;48.792;9.802;2022-12-29T06:52:21;5.30;99.90
7212;DHT22;3647;48.792;9.802;2022-12-29T06:54:49;5.30;99.90
7212;DHT22;3647;48.792;9.802;2022-12-29T06:57:16;5.30;99.90
7212;DHT22;3647;48.792;9.802;2022-12-29T06:59:44;5.40;99.90
7212;DHT22;3647;48.792;9.802;2022-12-29T07:02:11;5.20;99.90
7212;DHT22;3647;48.792;9.802;2022-12-29T07:04:39;5.20;99.90
7212;DHT22;3647;48.792;9.802;2022-12-29T07:07:06;5.10;99.90
7212;DHT22;3647;48.792;9.802;2022-12-29T07:09:33;5.10;99.90
7212;DHT22;3647;48.792;9.802;2022-12-29T07:11:59;5.10;99.90
7212;DHT22;3647;48.792;9.802;2022-12-29T07:14:26;5.10;99.90
7212;DHT22;3647;48.792;9.802;2022-12-29T07:16:54;5.00;99.90
7212;DHT22;3647;48.792;9.802;2022-12-29T07:19:21;5.10;99.90
7212;DHT22;3647;48.792;9.802;2022-12-29T07:21:48;5.20;99.90
7212;DHT22;3647;48.792;9.802;2022-12-29T07:24:15;5.40;99.90
7212;DHT22;3647;48.792;9.802;2022-12-29T07:26:41;5.30;99.90
7212;DHT22;3647;48.792;9.802;2022-12-29T07:29:08;5.30;99.90
7212;DHT22;3647;48.792;9.802;2022-12-29T07:31:35;5.20;99.90
7212;DHT22;3647;48.792;9.802;2022-12-29T07:34:03;5.30;99.90
7212;DHT22;3647;48.792;9.802;2022-12-29T07:36:30;5.30;99.90
7212;DHT22;3647;48.792;9.802;2022-12-29T07:38:56;5.40;99.90
7212;DHT22;3647;48.792;9.802;2022-12-29T07:41:23;5.40;99.90
7212;DHT22;3647;48.792;9.802;2022-12-29T07:43:50;5.40;99.90
7212;DHT22;3647;48.792;9.802;2022-12-29T07:46:17;5.50;99.90
7212;DHT22;3647;48.792;9.802;2022-12-29T07:48:43;5.50;99.90
7212;DHT22;3647;48.792;9.802;2022-12-29T07:51:11;5.60;99.90
7212;DHT22;3647;48.792;9.802;2022-12-29T07:53:38;5.50;99.90
7212;DHT22;3647;48.792;9.802;2022-12-29T07:56:05;5.50;99.90
7212;DHT22;3647;48.792;9.802;2022-12-29T07:58:32;5.50;99.90
7212;DHT22;3647;48.792;9.802;2022-12-29T08:00:59;5.50;99.90
7212;DHT22;3647;48.792;9.802;2022-12-29T08:03:26;5.50;99.90
7212;DHT22;3647;48.792;9.802;2022-12-29T08:05:53;5.50;99.90
7212;DHT22;3647;48.792;9.802;2022-12-29T08:08:21;5.60;99.90
7212;DHT22;3647;48.792;9.802;2022-12-29T08:10:48;5.60;99.90
7212;DHT22;3647;48.792;9.802;2022-12-29T08:13:15;5.70;99.90
7212;DHT22;3647;48.792;9.802;2022-12-29T08:15:41;5.70;99.90
7212;DHT22;3647;48.792;9.802;2022-12-29T08:18:08;5.70;99.90
7212;DHT22;3647;48.792;9.802;2022-12-29T08:20:35;5.70;99.90
7212;DHT22;3647;48.792;9.802;2022-12-29T08:23:01;5.80;99.90
7212;DHT22;3647;48.792;9.802;2022-12-29T08:25:30;6.00;99.90
7212;DHT22;3647;48.792;9.802;2022-12-29T08:27:56;6.10;99.90
7212;DHT22;3647;48.792;9.802;2022-12-29T08:30:23;6.20;99.90
7212;DHT22;3647;48.792;9.802;2022-12-29T08:32:50;6.20;99.90
7212;DHT22;3647;48.792;9.802;2022-12-29T08:35:17;6.40;99.90
7212;DHT22;3647;48.792;9.802;2022-12-29T08:37:43;6.50;99.90
7212;DHT22;3647;48.792;9.802;2022-12-29T08:40:10;6.60;99.90
7212;DHT22;3647;48.792;9.802;2022-12-29T08:42:39;6.70;99.90
7212;DHT22;3647;48.792;9.802;2022-12-29T08:45:07;6.90;99.90
7212;DHT22;3647;48.792;9.802;2022-12-29T08:47:34;7.10;99.90
7212;DHT22;3647;48.792;9.802;2022-12-29T08:50:01;7.20;99.90
7212;DHT22;3647;48.792;9.802;2022-12-29T08:52:28;7.40;99.90
7212;DHT22;3647;48.792;9.802;2022-12-29T08:54:54;7.40;99.90
7212;DHT22;3647;48.792;9.802;2022-12-29T08:57:21;7.50;99.90
7212;DHT22;3647;48.792;9.802;2022-12-29T08:59:49;7.60;99.90
7212;DHT22;3647;48.792;9.802;2022-12-29T09:02:16;7.70;99.90
7212;DHT22;3647;48.792;9.802;2022-12-29T09:04:43;7.80;99.90
7212;DHT22;3647;48.792;9.802;2022-12-29T09:07:09;8.00;99.90
7212;DHT22;3647;48.792;9.802;2022-12-29T09:09:36;8.30;99.90
7212;DHT22;3647;48.792;9.802;2022-12-29T09:12:03;8.40;99.90
7212;DHT22;3647;48.792;9.802;2022-12-29T09:14:30;8.70;99.90
7212;DHT22;3647;48.792;9.802;2022-12-29T09:16:58;9.20;99.90
7212;DHT22;3647;48.792;9.802;2022-12-29T09:19:43;9.50;99.90
7212;DHT22;3647;48.792;9.802;2022-12-29T09:22:09;9.90;99.90
7212;DHT22;3647;48.792;9.802;2022-12-29T09:24:36;10.20;99.90
7212;DHT22;3647;48.792;9.802;2022-12-29T09:27:03;10.40;99.90
7212;DHT22;3647;48.792;9.802;2022-12-29T09:29:30;10.50;99.90
7212;DHT22;3647;48.792;9.802;2022-12-29T09:31:58;10.50;99.90
7212;DHT22;3647;48.792;9.802;2022-12-29T09:34:25;10.70;99.90
7212;DHT22;3647;48.792;9.802;2022-12-29T09:36:51;10.60;99.90
7212;DHT22;3647;48.792;9.802;2022-12-29T09:39:18;10.70;99.90
7212;DHT22;3647;48.792;9.802;2022-12-29T09:41:51;10.70;99.90
7212;DHT22;3647;48.792;9.802;2022-12-29T09:44:23;10.80;99.90
7212;DHT22;3647;48.792;9.802;2022-12-29T09:46:53;10.90;99.90
7212;DHT22;3647;48.792;9.802;2022-12-29T09:49:26;10.90;99.90
7212;DHT22;3647;48.792;9.802;2022-12-29T09:51:57;11.00;99.90
7212;DHT22;3647;48.792;9.802;2022-12-29T09:54:37;11.10;99.90
7212;DHT22;3647;48.792;9.802;2022-12-29T09:57:15;11.10;99.90
7212;DHT22;3647;48.792;9.802;2022-12-29T09:59:44;11.20;99.90
7212;DHT22;3647;48.792;9.802;2022-12-29T10:02:23;11.20;99.90
7212;DHT22;3647;48.792;9.802;2022-12-29T10:04:56;11.20;99.90
7212;DHT22;3647;48.792;9.802;2022-12-29T10:07:30;11.30;99.90
7212;DHT22;3647;48.792;9.802;2022-12-29T10:10:12;11.30;99.90
7212;DHT22;3647;48.792;9.802;2022-12-29T10:12:56;11.30;99.90
7212;DHT22;3647;48.792;9.802;2022-12-29T10:15:38;11.30;99.90
7212;DHT22;3647;48.792;9.802;2022-12-29T10:18:19;11.30;99.90
7212;DHT22;3647;48.792;9.802;2022-12-29T10:20:52;11.40;99.90
7212;DHT22;3647;48.792;9.802;2022-12-29T10:23:26;11.50;99.90
7212;DHT22;3647;48.792;9.802;2022-12-29T10:25:55;11.70;99.90
7212;DHT22;3647;48.792;9.802;2022-12-29T10:28:24;11.80;99.90
7212;DHT22;3647;48.792;9.802;2022-12-29T10:30:51;11.80;99.90
7212;DHT22;3647;48.792;9.802;2022-12-29T10:33:21;11.90;99.90
7212;DHT22;3647;48.792;9.802;2022-12-29T10:35:51;11.90;99.90
7212;DHT22;3647;48.792;9.802;2022-12-29T10:38:24;11.90;99.90
7212;DHT22;3647;48.792;9.802;2022-12-29T10:40:56;11.90;99.90
7212;DHT22;3647;48.792;9.802;2022-12-29T10:43:26;11.80;99.90
7212;DHT22;3647;48.792;9.802;2022-12-29T10:45:56;11.90;99.90
7212;DHT22;3647;48.792;9.802;2022-12-29T10:48:26;11.80;99.90
7212;DHT22;3647;48.792;9.802;2022-12-29T10:50:57;11.80;99.90
7212;DHT22;3647;48.792;9.802;2022-12-29T10:53:27;11.80;99.90
7212;DHT22;3647;48.792;9.802;2022-12-29T10:55:59;11.80;99.90
7212;DHT22;3647;48.792;9.802;2022-12-29T10:58:29;11.90;99.90
7212;DHT22;3647;48.792;9.802;2022-12-29T11:00:57;11.60;99.90
7212;DHT22;3647;48.792;9.802;2022-12-29T11:03:41;12.10;99.90
7212;DHT22;3647;48.792;9.802;2022-12-29T11:06:18;12.10;99.90
7212;DHT22;3647;48.792;9.802;2022-12-29T11:08:57;12.10;99.90
7212;DHT22;3647;48.792;9.802;2022-12-29T11:11:26;12.20;99.90
7212;DHT22;3647;48.792;9.802;2022-12-29T11:13:59;12.10;99.90
7212;DHT22;3647;48.792;9.802;2022-12-29T11:16:30;12.10;99.90
7212;DHT22;3647;48.792;9.802;2022-12-29T11:18:58;12.10;99.90
7212;DHT22;3647;48.792;9.802;2022-12-29T11:21:31;12.00;99.90
7212;DHT22;3647;48.792;9.802;2022-12-29T11:24:00;12.00;99.90
7212;DHT22;3647;48.792;9.802;2022-12-29T11:26:27;11.90;99.90
7212;DHT22;3647;48.792;9.802;2022-12-29T11:29:14;11.90;99.90
7212;DHT22;3647;48.792;9.802;2022-12-29T11:31:44;11.90;99.90
7212;DHT22;3647;48.792;9.802;2022-12-29T11:34:17;11.90;99.90
7212;DHT22;3647;48.792;9.802;2022-12-29T11:36:47;12.00;99.90
7212;DHT22;3647;48.792;9.802;2022-12-29T11:39:28;12.10;99.90
7212;DHT22;3647;48.792;9.802;2022-12-29T11:41:56;12.10;99.90
7212;DHT22;3647;48.792;9.802;2022-12-29T11:44:23;12.20;99.90
7212;DHT22;3647;48.792;9.802;2022-12-29T11:46:52;12.40;99.90
7212;DHT22;3647;48.792;9.802;2022-12-29T11:49:21;12.40;99.90
7212;DHT22;3647;48.792;9.802;2022-12-29T11:51:51;12.50;99.90
7212;DHT22;3647;48.792;9.802;2022-12-29T11:54:23;12.50;99.90
7212;DHT22;3647;48.792;9.802;2022-12-29T11:56:52;12.50;99.90
7212;DHT22;3647;48.792;9.802;2022-12-29T11:59:38;12.60;99.90
7212;DHT22;3647;48.792;9.802;2022-12-29T12:02:39;12.50;99.90
7212;DHT22;3647;48.792;9.802;2022-12-29T12:05:21;12.50;99.90
7212;DHT22;3647;48.792;9.802;2022-12-29T12:07:55;12.60;99.90
7212;DHT22;3647;48.792;9.802;2022-12-29T12:10:27;12.60;99.90
7212;DHT22;3647;48.792;9.802;2022-12-29T12:13:12;12.60;99.90
7212;DHT22;3647;48.792;9.802;2022-12-29T12:15:46;12.60;99.90
7212;DHT22;3647;48.792;9.802;2022-12-29T12:18:18;12.50;99.90
7212;DHT22;3647;48.792;9.802;2022-12-29T12:20:49;12.30;99.90
7212;DHT22;3647;48.792;9.802;2022-12-29T12:23:38;12.50;99.90
7212;DHT22;3647;48.792;9.802;2022-12-29T12:26:12;12.90;99.90
7212;DHT22;3647;48.792;9.802;2022-12-29T12:28:48;12.50;99.90
7212;DHT22;3647;48.792;9.802;2022-12-29T12:31:25;12.50;99.90
7212;DHT22;3647;48.792;9.802;2022-12-29T12:33:58;12.50;99.90
7212;DHT22;3647;48.792;9.802;2022-12-29T12:36:47;12.50;99.90
7212;DHT22;3647;48.792;9.802;2022-12-29T12:39:25;12.50;99.90
7212;DHT22;3647;48.792;9.802;2022-12-29T12:42:01;12.40;99.90
7212;DHT22;3647;48.792;9.802;2022-12-29T12:44:36;12.50;99.90
7212;DHT22;3647;48.792;9.802;2022-12-29T12:47:18;12.40;99.90
7212;DHT22;3647;48.792;9.802;2022-12-29T12:50:17;12.40;99.90
7212;DHT22;3647;48.792;9.802;2022-12-29T12:53:01;12.30;99.90
7212;DHT22;3647;48.792;9.802;2022-12-29T12:55:46;12.40;99.90
7212;DHT22;3647;48.792;9.802;2022-12-29T12:58:20;12.40;99.90
7212;DHT22;3647;48.792;9.802;2022-12-29T13:01:00;12.30;99.90
7212;DHT22;3647;48.792;9.802;2022-12-29T13:03:44;11.90;99.90
7212;DHT22;3647;48.792;9.802;2022-12-29T13:06:18;12.20;99.90
7212;DHT22;3647;48.792;9.802;2022-12-29T13:09:00;12.20;99.90
7212;DHT22;3647;48.792;9.802;2022-12-29T13:11:42;13.40;99.90
7212;DHT22;3647;48.792;9.802;2022-12-29T13:14:21;12.20;99.90
7212;DHT22;3647;48.792;9.802;2022-12-29T13:16:56;12.10;99.90
7212;DHT22;3647;48.792;9.802;2022-12-29T13:19:30;12.10;99.90
7212;DHT22;3647;48.792;9.802;2022-12-29T13:22:07;12.10;99.90
7212;DHT22;3647;48.792;9.802;2022-12-29T13:24:43;12.00;99.90
7212;DHT22;3647;48.792;9.802;2022-12-29T13:27:16;12.10;99.90
7212;DHT22;3647;48.792;9.802;2022-12-29T13:29:52;12.10;99.90
7212;DHT22;3647;48.792;9.802;2022-12-29T13:32:28;12.20;99.90
7212;DHT22;3647;48.792;9.802;2022-12-29T13:35:07;12.20;99.90
7212;DHT22;3647;48.792;9.802;2022-12-29T13:37:45;14.30;99.90
7212;DHT22;3647;48.792;9.802;2022-12-29T13:40:16;12.10;99.90
7212;DHT22;3647;48.792;9.802;2022-12-29T13:42:47;12.00;99.90
7212;DHT22;3647;48.792;9.802;2022-12-29T13:45:17;12.00;99.90
7212;DHT22;3647;48.792;9.802;2022-12-29T13:47:47;12.00;99.90
7212;DHT22;3647;48.792;9.802;2022-12-29T13:50:18;12.00;99.90
7212;DHT22;3647;48.792;9.802;2022-12-29T13:52:49;12.00;99.90
7212;DHT22;3647;48.792;9.802;2022-12-29T13:55:26;12.00;99.90
7212;DHT22;3647;48.792;9.802;2022-12-29T13:58:01;12.00;99.90
7212;DHT22;3647;48.792;9.802;2022-12-29T14:00:35;11.90;99.90
7212;DHT22;3647;48.792;9.802;2022-12-29T14:06:22;11.90;99.90
7212;DHT22;3647;48.792;9.802;2022-12-29T14:08:52;11.90;99.90
7212;DHT22;3647;48.792;9.802;2022-12-29T14:11:22;11.90;99.90
7212;DHT22;3647;48.792;9.802;2022-12-29T14:13:52;11.80;99.90
7212;DHT22;3647;48.792;9.802;2022-12-29T14:16:29;11.80;99.90
7212;DHT22;3647;48.792;9.802;2022-12-29T14:19:03;11.80;99.90
7212;DHT22;3647;48.792;9.802;2022-12-29T14:21:31;11.80;99.90
7212;DHT22;3647;48.792;9.802;2022-12-29T14:24:28;11.80;99.90
7212;DHT22;3647;48.792;9.802;2022-12-29T14:27:51;11.80;99.90
7212;DHT22;3647;48.792;9.802;2022-12-29T14:30:52;11.90;99.90
7212;DHT22;3647;48.792;9.802;2022-12-29T14:33:19;12.00;99.90
7212;DHT22;3647;48.792;9.802;2022-12-29T14:35:48;12.00;99.90
7212;DHT22;3647;48.792;9.802;2022-12-29T14:38:22;12.00;99.90
7212;DHT22;3647;48.792;9.802;2022-12-29T14:40:50;12.00;99.90
7212;DHT22;3647;48.792;9.802;2022-12-29T14:43:24;12.00;99.90
7212;DHT22;3647;48.792;9.802;2022-12-29T14:45:58;12.00;99.90
7212;DHT22;3647;48.792;9.802;2022-12-29T14:48:36;12.10;99.90
7212;DHT22;3647;48.792;9.802;2022-12-29T14:51:25;12.00;99.90
7212;DHT22;3647;48.792;9.802;2022-12-29T14:53:54;12.00;99.90
7212;DHT22;3647;48.792;9.802;2022-12-29T14:56:25;11.90;99.90
7212;DHT22;3647;48.792;9.802;2022-12-29T14:58:53;11.90;99.90
7212;DHT22;3647;48.792;9.802;2022-12-29T15:01:34;11.90;99.90
7212;DHT22;3647;48.792;9.802;2022-12-29T15:04:06;11.80;99.90
7212;DHT22;3647;48.792;9.802;2022-12-29T15:06:40;11.70;99.90
7212;DHT22;3647;48.792;9.802;2022-12-29T15:09:15;11.70;99.90
7212;DHT22;3647;48.792;9.802;2022-12-29T15:11:50;11.70;99.90
7212;DHT22;3647;48.792;9.802;2022-12-29T15:14:32;11.60;99.90
7212;DHT22;3647;48.792;9.802;2022-12-29T15:17:01;11.70;99.90
7212;DHT22;3647;48.792;9.802;2022-12-29T15:19:36;11.50;99.90
7212;DHT22;3647;48.792;9.802;2022-12-29T15:22:03;11.60;99.90
7212;DHT22;3647;48.792;9.802;2022-12-29T15:24:30;11.40;99.90
7212;DHT22;3647;48.792;9.802;2022-12-29T15:26:57;11.30;99.90
7212;DHT22;3647;48.792;9.802;2022-12-29T15:29:36;11.20;99.90
7212;DHT22;3647;48.792;9.802;2022-12-29T15:32:19;11.20;99.90
7212;DHT22;3647;48.792;9.802;2022-12-29T15:34:48;11.10;99.90
7212;DHT22;3647;48.792;9.802;2022-12-29T15:37:18;11.10;99.90
7212;DHT22;3647;48.792;9.802;2022-12-29T15:39:45;11.20;99.90
7212;DHT22;3647;48.792;9.802;2022-12-29T15:45:11;11.10;99.90
7212;DHT22;3647;48.792;9.802;2022-12-29T15:47:41;11.10;99.90
7212;DHT22;3647;48.792;9.802;2022-12-29T15:50:16;11.20;99.90
7212;DHT22;3647;48.792;9.802;2022-12-29T15:52:46;11.00;99.90
7212;DHT22;3647;48.792;9.802;2022-12-29T15:55:20;11.10;99.90
7212;DHT22;3647;48.792;9.802;2022-12-29T15:57:48;11.00;99.90
7212;DHT22;3647;48.792;9.802;2022-12-29T16:00:24;11.10;99.90
7212;DHT22;3647;48.792;9.802;2022-12-29T16:02:53;11.00;99.90
7212;DHT22;3647;48.792;9.802;2022-12-29T16:05:20;11.00;99.90
7212;DHT22;3647;48.792;9.802;2022-12-29T16:07:55;11.00;99.90
7212;DHT22;3647;48.792;9.802;2022-12-29T16:10:26;11.00;99.90
7212;DHT22;3647;48.792;9.802;2022-12-29T16:13:02;10.90;99.90
7212;DHT22;3647;48.792;9.802;2022-12-29T16:15:29;10.90;99.90
7212;DHT22;3647;48.792;9.802;2022-12-29T16:17:58;11.00;99.90
7212;DHT22;3647;48.792;9.802;2022-12-29T16:20:31;10.90;99.90
7212;DHT22;3647;48.792;9.802;2022-12-29T16:23:00;11.00;99.90
7212;DHT22;3647;48.792;9.802;2022-12-29T16:25:29;11.40;99.90
7212;DHT22;3647;48.792;9.802;2022-12-29T16:27:57;11.00;99.90
7212;DHT22;3647;48.792;9.802;2022-12-29T16:30:27;11.10;99.90
7212;DHT22;3647;48.792;9.802;2022-12-29T16:32:55;11.00;99.90
7212;DHT22;3647;48.792;9.802;2022-12-29T16:35:25;11.10;99.90
7212;DHT22;3647;48.792;9.802;2022-12-29T16:38:08;11.10;99.90
7212;DHT22;3647;48.792;9.802;2022-12-29T16:40:52;11.10;99.90
7212;DHT22;3647;48.792;9.802;2022-12-29T16:43:21;11.10;99.90
7212;DHT22;3647;48.792;9.802;2022-12-29T16:46:17;11.00;99.90
7212;DHT22;3647;48.792;9.802;2022-12-29T16:48:50;11.00;99.90
7212;DHT22;3647;48.792;9.802;2022-12-29T16:51:23;11.00;99.90
7212;DHT22;3647;48.792;9.802;2022-12-29T16:53:53;11.00;99.90
7212;DHT22;3647;48.792;9.802;2022-12-29T16:56:23;10.90;99.90
7212;DHT22;3647;48.792;9.802;2022-12-29T16:58:53;10.90;99.90
7212;DHT22;3647;48.792;9.802;2022-12-29T17:01:25;10.90;99.90
7212;DHT22;3647;48.792;9.802;2022-12-29T17:03:54;10.80;99.90
7212;DHT22;3647;48.792;9.802;2022-12-29T17:06:23;10.70;99.90
7212;DHT22;3647;48.792;9.802;2022-12-29T17:08:50;10.60;99.90
7212;DHT22;3647;48.792;9.802;2022-12-29T17:11:22;10.50;99.90
7212;DHT22;3647;48.792;9.802;2022-12-29T17:14:18;10.40;99.90
7212;DHT22;3647;48.792;9.802;2022-12-29T17:16:46;10.30;99.90
7212;DHT22;3647;48.792;9.802;2022-12-29T17:19:16;10.30;99.90
7212;DHT22;3647;48.792;9.802;2022-12-29T17:21:44;10.40;99.90
7212;DHT22;3647;48.792;9.802;2022-12-29T17:24:15;10.10;99.90
7212;DHT22;3647;48.792;9.802;2022-12-29T17:26:42;10.10;99.90
7212;DHT22;3647;48.792;9.802;2022-12-29T17:29:18;10.00;99.90
7212;DHT22;3647;48.792;9.802;2022-12-29T17:31:46;10.00;99.90
7212;DHT22;3647;48.792;9.802;2022-12-29T17:34:13;10.00;99.90
7212;DHT22;3647;48.792;9.802;2022-12-29T17:36:40;9.90;99.90
7212;DHT22;3647;48.792;9.802;2022-12-29T17:39:08;9.90;99.90
7212;DHT22;3647;48.792;9.802;2022-12-29T17:41:36;9.90;99.90
7212;DHT22;3647;48.792;9.802;2022-12-29T17:44:04;9.80;99.90
7212;DHT22;3647;48.792;9.802;2022-12-29T17:46:31;9.80;99.90
7212;DHT22;3647;48.792;9.802;2022-12-29T17:48:58;9.70;99.90
7212;DHT22;3647;48.792;9.802;2022-12-29T17:51:25;9.70;99.90
7212;DHT22;3647;48.792;9.802;2022-12-29T17:53:52;9.60;99.90
7212;DHT22;3647;48.792;9.802;2022-12-29T17:56:20;10.40;99.90
7212;DHT22;3647;48.792;9.802;2022-12-29T17:58:47;9.60;99.90
7212;DHT22;3647;48.792;9.802;2022-12-29T18:01:15;9.60;99.90
7212;DHT22;3647;48.792;9.802;2022-12-29T18:03:46;9.60;99.90
7212;DHT22;3647;48.792;9.802;2022-12-29T18:06:12;9.50;99.90
7212;DHT22;3647;48.792;9.802;2022-12-29T18:08:40;9.50;99.90
7212;DHT22;3647;48.792;9.802;2022-12-29T18:11:19;9.40;99.90
7212;DHT22;3647;48.792;9.802;2022-12-29T18:13:47;9.50;99.90
7212;DHT22;3647;48.792;9.802;2022-12-29T18:16:15;9.40;99.90
7212;DHT22;3647;48.792;9.802;2022-12-29T18:18:42;9.40;99.90
7212;DHT22;3647;48.792;9.802;2022-12-29T18:21:14;9.40;99.90
7212;DHT22;3647;48.792;9.802;2022-12-29T18:23:42;10.00;99.90
7212;DHT22;3647;48.792;9.802;2022-12-29T18:26:13;9.40;99.90
7212;DHT22;3647;48.792;9.802;2022-12-29T18:28:41;9.30;99.90
7212;DHT22;3647;48.792;9.802;2022-12-29T18:31:17;9.30;99.90
7212;DHT22;3647;48.792;9.802;2022-12-29T18:33:44;9.30;99.90
7212;DHT22;3647;48.792;9.802;2022-12-29T18:36:12;9.30;99.90
7212;DHT22;3647;48.792;9.802;2022-12-29T18:38:39;9.30;99.90
7212;DHT22;3647;48.792;9.802;2022-12-29T18:41:13;10.00;99.90
7212;DHT22;3647;48.792;9.802;2022-12-29T18:43:41;9.70;99.90
7212;DHT22;3647;48.792;9.802;2022-12-29T18:46:08;9.20;99.90
7212;DHT22;3647;48.792;9.802;2022-12-29T18:48:36;9.20;99.90
7212;DHT22;3647;48.792;9.802;2022-12-29T18:51:03;9.80;99.90
7212;DHT22;3647;48.792;9.802;2022-12-29T18:53:30;9.20;99.90
7212;DHT22;3647;48.792;9.802;2022-12-29T18:56:00;9.20;99.90
7212;DHT22;3647;48.792;9.802;2022-12-29T18:58:27;9.20;99.90
7212;DHT22;3647;48.792;9.802;2022-12-29T19:00:53;9.20;99.90
7212;DHT22;3647;48.792;9.802;2022-12-29T19:03:20;9.20;99.90
7212;DHT22;3647;48.792;9.802;2022-12-29T19:05:48;9.30;99.90
7212;DHT22;3647;48.792;9.802;2022-12-29T19:08:15;9.90;99.90
7212;DHT22;3647;48.792;9.802;2022-12-29T19:10:43;9.30;99.90
7212;DHT22;3647;48.792;9.802;2022-12-29T19:13:14;9.20;99.90
7212;DHT22;3647;48.792;9.802;2022-12-29T19:15:41;9.20;99.90
7212;DHT22;3647;48.792;9.802;2022-12-29T19:18:13;9.30;99.90
7212;DHT22;3647;48.792;9.802;2022-12-29T19:20:42;10.20;99.90
7212;DHT22;3647;48.792;9.802;2022-12-29T19:23:12;9.30;99.90
7212;DHT22;3647;48.792;9.802;2022-12-29T19:25:40;9.50;99.90
7212;DHT22;3647;48.792;9.802;2022-12-29T19:28:14;9.50;99.90
7212;DHT22;3647;48.792;9.802;2022-12-29T19:30:42;9.40;99.90
7212;DHT22;3647;48.792;9.802;2022-12-29T19:33:09;10.80;99.90
7212;DHT22;3647;48.792;9.802;2022-12-29T19:35:36;9.30;99.90
7212;DHT22;3647;48.792;9.802;2022-12-29T19:38:03;9.30;99.90
7212;DHT22;3647;48.792;9.802;2022-12-29T19:40:31;9.30;99.90
7212;DHT22;3647;48.792;9.802;2022-12-29T19:42:58;9.30;99.90
7212;DHT22;3647;48.792;9.802;2022-12-29T19:45:25;9.20;99.90
7212;DHT22;3647;48.792;9.802;2022-12-29T19:47:52;9.10;99.90
7212;DHT22;3647;48.792;9.802;2022-12-29T19:50:19;10.70;99.90
7212;DHT22;3647;48.792;9.802;2022-12-29T19:52:47;9.00;99.90
7212;DHT22;3647;48.792;9.802;2022-12-29T19:55:15;9.00;99.90
7212;DHT22;3647;48.792;9.802;2022-12-29T19:57:43;9.00;99.90
7212;DHT22;3647;48.792;9.802;2022-12-29T20:00:11;9.00;99.90
7212;DHT22;3647;48.792;9.802;2022-12-29T20:02:40;9.00;99.90
7212;DHT22;3647;48.792;9.802;2022-12-29T20:05:08;9.00;99.90
7212;DHT22;3647;48.792;9.802;2022-12-29T20:07:35;8.90;99.90
7212;DHT22;3647;48.792;9.802;2022-12-29T20:10:05;9.00;99.90
7212;DHT22;3647;48.792;9.802;2022-12-29T20:12:32;8.90;99.90
7212;DHT22;3647;48.792;9.802;2022-12-29T20:15:01;8.90;99.90
7212;DHT22;3647;48.792;9.802;2022-12-29T20:17:27;8.90;99.90
7212;DHT22;3647;48.792;9.802;2022-12-29T20:19:54;8.90;99.90
7212;DHT22;3647;48.792;9.802;2022-12-29T20:22:21;9.00;99.90
7212;DHT22;3647;48.792;9.802;2022-12-29T20:24:48;9.30;99.90
7212;DHT22;3647;48.792;9.802;2022-12-29T20:27:14;8.90;99.90
7212;DHT22;3647;48.792;9.802;2022-12-29T20:29:41;8.80;99.90
7212;DHT22;3647;48.792;9.802;2022-12-29T20:32:11;9.20;99.90
7212;DHT22;3647;48.792;9.802;2022-12-29T20:34:40;9.30;99.90
7212;DHT22;3647;48.792;9.802;2022-12-29T20:37:07;8.80;99.90
7212;DHT22;3647;48.792;9.802;2022-12-29T20:39:35;8.60;99.90
7212;DHT22;3647;48.792;9.802;2022-12-29T20:42:02;8.60;99.90
7212;DHT22;3647;48.792;9.802;2022-12-29T20:44:30;8.60;99.90
7212;DHT22;3647;48.792;9.802;2022-12-29T20:46:57;9.40;99.90
7212;DHT22;3647;48.792;9.802;2022-12-29T20:49:26;8.60;99.90
7212;DHT22;3647;48.792;9.802;2022-12-29T20:51:54;8.60;99.90
7212;DHT22;3647;48.792;9.802;2022-12-29T20:54:21;8.60;99.90
7212;DHT22;3647;48.792;9.802;2022-12-29T20:56:49;8.60;99.90
7212;DHT22;3647;48.792;9.802;2022-12-29T20:59:17;8.60;99.90
7212;DHT22;3647;48.792;9.802;2022-12-29T21:01:44;10.00;99.90
7212;DHT22;3647;48.792;9.802;2022-12-29T21:04:10;9.00;99.90
7212;DHT22;3647;48.792;9.802;2022-12-29T21:06:39;8.50;99.90
7212;DHT22;3647;48.792;9.802;2022-12-29T21:09:06;9.60;99.90
7212;DHT22;3647;48.792;9.802;2022-12-29T21:11:32;8.50;99.90
7212;DHT22;3647;48.792;9.802;2022-12-29T21:14:00;9.80;99.90
7212;DHT22;3647;48.792;9.802;2022-12-29T21:16:27;9.60;99.90
7212;DHT22;3647;48.792;9.802;2022-12-29T21:18:54;8.50;99.90
7212;DHT22;3647;48.792;9.802;2022-12-29T21:21:22;8.60;99.90
7212;DHT22;3647;48.792;9.802;2022-12-29T21:23:51;8.40;99.90
7212;DHT22;3647;48.792;9.802;2022-12-29T21:26:20;8.80;99.90
7212;DHT22;3647;48.792;9.802;2022-12-29T21:28:47;9.80;99.90
7212;DHT22;3647;48.792;9.802;2022-12-29T21:31:22;8.40;99.90
7212;DHT22;3647;48.792;9.802;2022-12-29T21:33:50;9.90;99.90
7212;DHT22;3647;48.792;9.802;2022-12-29T21:36:16;8.70;99.90
7212;DHT22;3647;48.792;9.802;2022-12-29T21:38:43;8.30;99.90
7212;DHT22;3647;48.792;9.802;2022-12-29T21:41:13;8.30;99.90
7212;DHT22;3647;48.792;9.802;2022-12-29T21:43:40;8.80;99.90
7212;DHT22;3647;48.792;9.802;2022-12-29T21:46:07;8.30;99.90
7212;DHT22;3647;48.792;9.802;2022-12-29T21:48:33;8.30;99.90
7212;DHT22;3647;48.792;9.802;2022-12-29T21:51:06;8.30;99.90
7212;DHT22;3647;48.792;9.802;2022-12-29T21:53:55;8.20;99.90